createdAt,value
2023-04-18T00:00:48.852Z,41.46
2023-04-18T00:03:16.325Z,41.25
2023-04-18T00:05:48.102Z,41.60
2023-04-18T00:08:15.054Z,41.98
2023-04-18T00:10:42.040Z,42.00
2023-04-18T00:13:08.867Z,42.04
2023-04-18T00:15:35.832Z,42.00
2023-04-18T00:18:03.894Z,42.00
2023-04-18T00:20:30.909Z,42.47
2023-04-18T00:22:58.168Z,42.11
2023-04-18T00:25:25.115Z,42.02
2023-04-18T00:27:51.939Z,42.17
2023-04-18T00:30:18.823Z,41.81
2023-04-18T00:32:45.769Z,42.34
2023-04-18T00:35:12.748Z,42.13
2023-04-18T00:37:39.635Z,41.96
2023-04-18T00:40:06.825Z,42.10
2023-04-18T00:42:34.105Z,42.33
2023-04-18T00:45:01.426Z,42.45
2023-04-18T00:47:30.540Z,42.46
2023-04-18T00:49:57.513Z,42.24
2023-04-18T00:52:26.137Z,42.83
2023-04-18T00:54:53.108Z,43.05
2023-04-18T00:57:19.946Z,42.67
2023-04-18T00:59:47.451Z,43.18
2023-04-18T01:02:14.427Z,42.68
2023-04-18T01:04:43.005Z,43.17
2023-04-18T01:07:09.941Z,42.86
2023-04-18T01:09:37.097Z,43.41
2023-04-18T01:12:04.442Z,42.99
2023-04-18T01:14:31.516Z,43.17
2023-04-18T01:16:58.862Z,43.30
2023-04-18T01:19:25.864Z,43.62
2023-04-18T01:21:54.192Z,43.67
2023-04-18T01:24:21.793Z,43.40
2023-04-18T01:26:48.855Z,43.86
2023-04-18T01:29:16.004Z,43.67
2023-04-18T01:31:42.979Z,43.71
2023-04-18T01:34:09.919Z,43.55
2023-04-18T01:36:37.774Z,44.07
2023-04-18T01:39:04.714Z,44.13
2023-04-18T01:41:33.078Z,43.85
2023-04-18T01:44:00.383Z,43.56
2023-04-18T01:46:27.948Z,43.53
2023-04-18T01:48:55.252Z,43.98
2023-04-18T01:51:22.566Z,43.63
2023-04-18T01:53:49.965Z,43.47
2023-04-18T01:56:16.965Z,43.97
2023-04-18T01:58:43.846Z,44.34
2023-04-18T02:01:12.433Z,43.91
2023-04-18T02:03:40.169Z,44.41
2023-04-18T02:06:07.378Z,44.55
2023-04-18T02:08:36.169Z,44.77
2023-04-18T02:11:06.133Z,44.45
2023-04-18T02:13:33.183Z,44.63
2023-04-18T02:16:00.403Z,44.74
2023-04-18T02:18:47.288Z,44.32
2023-04-18T02:21:14.164Z,44.37
2023-04-18T02:23:41.027Z,44.56
2023-04-18T02:26:07.969Z,44.56
2023-04-18T02:28:34.880Z,45.14
2023-04-18T02:31:03.453Z,44.90
2023-04-18T02:33:30.442Z,44.99
2023-04-18T02:35:57.396Z,44.79
2023-04-18T02:38:24.379Z,44.89
2023-04-18T02:40:52.265Z,44.97
2023-04-18T02:43:21.031Z,44.93
2023-04-18T02:45:48.078Z,45.18
2023-04-18T02:48:15.180Z,45.68
2023-04-18T02:50:43.475Z,45.39
2023-04-18T02:53:10.471Z,45.69
2023-04-18T02:55:55.997Z,46.17
2023-04-18T02:58:29.982Z,45.97
2023-04-18T03:01:29.270Z,46.30
2023-04-18T03:04:07.230Z,46.91
2023-04-18T03:06:44.122Z,46.79
2023-04-18T03:09:11.501Z,46.90
2023-04-18T03:11:44.267Z,47.31
2023-04-18T03:14:12.183Z,47.43
2023-04-18T03:16:57.095Z,47.17
2023-04-18T03:19:29.903Z,46.84
2023-04-18T03:22:00.084Z,46.55
2023-04-18T03:24:27.528Z,46.41
2023-04-18T03:27:00.664Z,46.30
2023-04-18T03:29:27.952Z,46.35
2023-04-18T03:31:55.918Z,45.83
2023-04-18T03:34:23.095Z,46.07
2023-04-18T03:36:50.187Z,45.80
2023-04-18T03:39:17.378Z,46.32
2023-04-18T03:41:44.609Z,45.79
2023-04-18T03:44:12.048Z,45.93
2023-04-18T03:46:41.052Z,46.14
2023-04-18T03:49:10.694Z,46.35
2023-04-18T03:51:47.983Z,46.63
2023-04-18T03:54:16.343Z,46.71
2023-04-18T03:56:43.762Z,47.33
2023-04-18T03:59:11.326Z,48.13
2023-04-18T04:01:40.128Z,48.02
2023-04-18T04:04:27.361Z,48.23
2023-04-18T04:06:54.470Z,48.29
2023-04-18T04:09:21.812Z,48.52
2023-04-18T04:11:50.305Z,48.44
2023-04-18T04:14:17.557Z,48.40
2023-04-18T04:16:46.484Z,48.46
2023-04-18T04:19:16.549Z,48.10
2023-04-18T04:21:51.603Z,48.05
2023-04-18T04:24:18.799Z,47.97
2023-04-18T04:26:48.944Z,47.26
2023-04-18T04:29:23.921Z,46.79
2023-04-18T04:31:52.520Z,47.04
2023-04-18T04:34:41.516Z,46.55
2023-04-18T04:37:10.866Z,46.65
2023-04-18T04:39:47.358Z,46.74
2023-04-18T04:42:32.628Z,46.50
2023-04-18T04:45:08.325Z,46.69
2023-04-18T04:47:36.952Z,46.54
2023-04-18T04:50:04.719Z,46.98
2023-04-18T04:52:33.418Z,46.83
2023-04-18T04:55:00.902Z,47.02
2023-04-18T04:57:30.210Z,46.95
2023-04-18T04:59:57.613Z,47.05
2023-04-18T05:02:25.264Z,46.70
2023-04-18T05:04:52.199Z,46.49
2023-04-18T05:07:19.198Z,46.55
2023-04-18T05:09:46.986Z,46.48
2023-04-18T05:12:14.702Z,46.66
2023-04-18T05:14:41.738Z,46.80
2023-04-18T05:17:08.847Z,46.86
2023-04-18T05:19:35.854Z,47.22
2023-04-18T05:22:03.312Z,47.36
2023-04-18T05:24:32.024Z,47.78
2023-04-18T05:26:59.032Z,48.13
2023-04-18T05:29:26.148Z,48.30
2023-04-18T05:31:53.320Z,48.18
2023-04-18T05:34:20.116Z,47.78
2023-04-18T05:36:48.228Z,47.55
2023-04-18T05:39:15.194Z,47.64
2023-04-18T05:41:42.591Z,47.29
2023-04-18T05:44:09.463Z,47.41
2023-04-18T05:46:36.370Z,47.55
2023-04-18T05:49:04.201Z,47.48
2023-04-18T05:51:31.686Z,47.72
2023-04-18T05:53:58.645Z,47.35
2023-04-18T05:56:44.140Z,46.95
2023-04-18T05:59:11.053Z,46.80
2023-04-18T06:01:38.008Z,46.72
2023-04-18T06:04:05.280Z,46.62
2023-04-18T06:06:32.395Z,46.35
2023-04-18T06:08:59.252Z,46.62
2023-04-18T06:11:26.471Z,46.66
2023-04-18T06:13:55.964Z,46.54
2023-04-18T06:16:23.097Z,46.73
2023-04-18T06:18:50.017Z,46.42
2023-04-18T06:21:16.921Z,46.50
2023-04-18T06:23:43.923Z,46.53
2023-04-18T06:26:11.396Z,46.32
2023-04-18T06:28:38.316Z,46.05
2023-04-18T06:31:05.186Z,45.37
2023-04-18T06:33:33.617Z,44.73
2023-04-18T06:36:00.564Z,44.41
2023-04-18T06:38:27.439Z,44.17
2023-04-18T06:40:54.362Z,43.98
2023-04-18T06:43:22.158Z,43.66
2023-04-18T06:45:49.509Z,44.06
2023-04-18T06:48:16.491Z,43.90
2023-04-18T06:50:44.012Z,44.01
2023-04-18T06:53:11.117Z,44.06
2023-04-18T06:55:37.993Z,43.75
2023-04-18T06:58:05.608Z,43.79
2023-04-18T07:00:32.533Z,42.65
2023-04-18T07:02:59.517Z,41.76
2023-04-18T07:05:26.505Z,42.23
2023-04-18T07:07:53.337Z,42.16
2023-04-18T07:10:20.289Z,40.43
2023-04-18T07:12:47.789Z,41.20
2023-04-18T07:15:14.777Z,40.64
2023-04-18T07:17:41.705Z,40.45
2023-04-18T07:20:08.940Z,39.64
2023-04-18T07:22:35.967Z,39.19
2023-04-18T07:25:02.954Z,39.12
2023-04-18T07:27:30.935Z,38.91
2023-04-18T07:29:57.923Z,39.08
2023-04-18T07:32:24.764Z,38.82
2023-04-18T07:34:52.946Z,38.71
2023-04-18T07:37:21.552Z,38.96
2023-04-18T07:39:48.544Z,38.88
2023-04-18T07:42:15.383Z,38.97
2023-04-18T07:44:42.318Z,39.03
2023-04-18T07:47:10.524Z,38.70
2023-04-18T07:49:37.987Z,38.09
2023-04-18T07:52:04.880Z,38.63
2023-04-18T07:54:32.459Z,38.44
2023-04-18T07:56:59.421Z,38.28
2023-04-18T07:59:26.306Z,37.93
2023-04-18T08:01:53.354Z,38.09
2023-04-18T08:04:20.470Z,38.01
2023-04-18T08:06:47.425Z,37.68
2023-04-18T08:09:14.554Z,37.76
2023-04-18T08:11:42.583Z,38.11
2023-04-18T08:14:09.550Z,37.60
2023-04-18T08:16:36.716Z,37.57
2023-04-18T08:19:03.665Z,37.86
2023-04-18T08:21:31.361Z,38.12
2023-04-18T08:23:59.561Z,38.43
2023-04-18T08:26:27.349Z,38.26
2023-04-18T08:28:54.357Z,38.58
2023-04-18T08:31:21.409Z,38.60
2023-04-18T08:33:48.238Z,38.03
2023-04-18T08:36:15.133Z,38.23
2023-04-18T08:38:42.155Z,38.70
2023-04-18T08:41:09.779Z,37.98
2023-04-18T08:43:57.066Z,37.99
2023-04-18T08:46:24.212Z,38.42
2023-04-18T08:48:51.585Z,38.32
2023-04-18T08:51:30.726Z,37.76
2023-04-18T08:54:07.436Z,37.48
2023-04-18T08:56:37.502Z,37.33
2023-04-18T08:59:05.865Z,36.83
2023-04-18T09:02:05.556Z,37.05
2023-04-18T09:04:38.918Z,36.67
2023-04-18T09:07:06.840Z,36.75
2023-04-18T09:09:46.379Z,36.96
2023-04-18T09:12:16.369Z,36.32
2023-04-18T09:14:45.696Z,35.91
2023-04-18T09:17:14.455Z,35.68
2023-04-18T09:19:54.649Z,35.41
2023-04-18T09:22:22.043Z,35.95
2023-04-18T09:24:55.553Z,36.78
2023-04-18T09:27:25.365Z,37.17
2023-04-18T09:29:55.895Z,37.44
2023-04-18T09:32:27.272Z,37.07
2023-04-18T09:34:58.286Z,37.55
2023-04-18T09:37:26.236Z,37.59
2023-04-18T09:39:53.382Z,37.65
2023-04-18T09:42:20.672Z,37.76
2023-04-18T09:45:07.029Z,37.55
2023-04-18T09:47:35.607Z,37.88
2023-04-18T09:50:03.633Z,38.29
2023-04-18T09:52:32.930Z,38.75
2023-04-18T09:55:00.837Z,38.15
2023-04-18T09:57:28.853Z,37.94
2023-04-18T09:59:59.868Z,37.68
2023-04-18T10:02:29.127Z,38.06
2023-04-18T10:04:56.334Z,38.42
2023-04-18T10:07:24.011Z,38.55
2023-04-18T10:09:51.549Z,38.46
2023-04-18T10:12:18.824Z,38.65
2023-04-18T10:14:45.993Z,38.47
2023-04-18T10:17:14.765Z,38.23
2023-04-18T10:19:44.378Z,38.09
2023-04-18T10:22:11.697Z,38.49
2023-04-18T10:24:48.772Z,37.97
2023-04-18T10:27:16.923Z,38.27
2023-04-18T10:29:46.530Z,37.97
2023-04-18T10:32:13.545Z,38.29
2023-04-18T10:34:41.270Z,40.33
2023-04-18T10:37:08.111Z,40.52
2023-04-18T10:39:57.225Z,40.84
2023-04-18T10:42:44.882Z,40.53
2023-04-18T10:45:22.225Z,40.66
2023-04-18T10:47:49.525Z,40.78
2023-04-18T10:50:17.101Z,40.82
2023-04-18T10:52:43.967Z,41.25
2023-04-18T10:55:17.387Z,41.47
2023-04-18T10:57:46.142Z,41.30
2023-04-18T11:00:14.761Z,41.11
2023-04-18T11:02:49.537Z,41.00
2023-04-18T11:05:27.927Z,41.06
2023-04-18T11:07:55.477Z,41.12
2023-04-18T11:10:24.696Z,41.35
2023-04-18T11:12:52.078Z,41.27
2023-04-18T11:15:23.667Z,41.56
2023-04-18T11:17:58.351Z,41.82
2023-04-18T11:20:25.714Z,41.61
2023-04-18T11:23:00.433Z,41.01
2023-04-18T11:25:31.975Z,41.00
2023-04-18T11:27:59.994Z,41.56
2023-04-18T11:30:27.273Z,40.92
2023-04-18T11:33:13.386Z,41.13
2023-04-18T11:35:59.853Z,41.25
2023-04-18T11:38:31.000Z,41.43
2023-04-18T11:40:58.049Z,40.81
2023-04-18T11:43:25.709Z,41.53
2023-04-18T11:46:11.759Z,41.46
2023-04-18T11:48:39.769Z,41.86
2023-04-18T11:51:07.430Z,41.38
2023-04-18T11:53:35.638Z,40.75
2023-04-18T11:56:04.168Z,40.68
2023-04-18T11:58:32.297Z,40.53
2023-04-18T12:03:45.078Z,41.27
2023-04-18T12:06:14.900Z,40.83
2023-04-18T12:08:43.164Z,40.78
2023-04-18T12:11:10.107Z,40.99
2023-04-18T12:13:36.974Z,41.06
2023-04-18T12:16:04.066Z,40.52
2023-04-18T12:18:31.693Z,40.79
2023-04-18T12:21:02.170Z,41.17
2023-04-18T12:23:37.155Z,41.63
2023-04-18T12:29:08.447Z,41.17
2023-04-18T12:31:35.656Z,40.80
2023-04-18T12:34:02.559Z,41.80
2023-04-18T12:36:29.838Z,41.98
2023-04-18T12:38:56.659Z,41.48
2023-04-18T12:41:23.718Z,41.43
2023-04-18T12:43:50.709Z,41.10
2023-04-18T12:46:17.760Z,40.81
2023-04-18T12:48:44.739Z,41.78
2023-04-18T12:51:26.890Z,41.58
2023-04-18T12:54:14.720Z,41.71
2023-04-18T12:59:44.632Z,41.68
2023-04-18T13:02:11.591Z,41.27
2023-04-18T13:04:38.891Z,41.01
2023-04-18T13:07:06.311Z,41.20
2023-04-18T13:09:33.819Z,39.46
2023-04-18T13:12:00.791Z,38.86
2023-04-18T13:14:27.709Z,37.98
2023-04-18T13:16:54.611Z,37.92
2023-04-18T13:19:21.596Z,37.67
2023-04-18T13:21:49.644Z,37.90
2023-04-18T13:24:16.686Z,37.92
2023-04-18T13:26:43.649Z,38.41
2023-04-18T13:29:10.464Z,38.29
2023-04-18T13:34:40.255Z,37.36
2023-04-18T13:37:45.022Z,37.12
2023-04-18T13:40:12.120Z,36.83
2023-04-18T13:42:58.072Z,36.55
2023-04-18T13:45:25.037Z,36.05
2023-04-18T13:47:52.035Z,35.48
2023-04-18T13:50:19.167Z,36.24
2023-04-18T13:52:48.223Z,36.86
2023-04-18T13:55:33.746Z,36.82
2023-04-18T13:58:00.808Z,35.81
2023-04-18T14:00:46.229Z,35.68
2023-04-18T14:03:13.181Z,35.53
2023-04-18T14:06:00.238Z,35.56
2023-04-18T14:08:45.899Z,35.80
2023-04-18T14:11:12.818Z,36.32
2023-04-18T14:13:39.634Z,36.41
2023-04-18T14:16:06.897Z,37.23
2023-04-18T14:18:52.567Z,37.54
2023-04-18T14:21:19.417Z,37.42
2023-04-18T14:23:46.300Z,37.52
2023-04-18T14:26:13.296Z,38.12
2023-04-18T14:28:40.348Z,38.57
2023-04-18T14:31:07.680Z,38.60
2023-04-18T14:33:34.975Z,38.55
2023-04-18T14:36:02.872Z,39.50
2023-04-18T14:38:30.071Z,39.85
2023-04-18T14:40:57.706Z,39.33
2023-04-18T14:43:24.935Z,39.70
2023-04-18T14:45:51.788Z,39.45
2023-04-18T14:48:18.683Z,40.45
2023-04-18T14:50:45.618Z,40.37
2023-04-18T14:53:12.554Z,40.80
2023-04-18T14:55:39.545Z,41.09
2023-04-18T14:58:06.579Z,41.04
2023-04-18T15:00:52.156Z,41.33
2023-04-18T15:03:19.301Z,41.30
2023-04-18T15:05:49.266Z,40.76
2023-04-18T15:08:16.453Z,41.41
2023-04-18T15:10:43.450Z,41.41
2023-04-18T15:13:11.278Z,41.12
2023-04-18T15:15:39.865Z,41.59
2023-04-18T15:18:07.758Z,41.55
2023-04-18T15:20:36.216Z,41.81
2023-04-18T15:23:03.432Z,42.33
2023-04-18T15:25:31.216Z,42.40
2023-04-18T15:27:58.629Z,42.55
2023-04-18T15:30:25.710Z,42.40
2023-04-18T15:32:54.065Z,42.20
2023-04-18T15:35:21.142Z,42.22
2023-04-18T15:37:49.334Z,42.50
2023-04-18T15:40:16.642Z,42.15
2023-04-18T15:42:43.922Z,41.90
2023-04-18T15:45:11.361Z,42.03
2023-04-18T15:47:38.941Z,41.86
2023-04-18T15:50:06.739Z,42.32
2023-04-18T15:52:33.837Z,42.46
2023-04-18T15:55:01.111Z,42.68
2023-04-18T15:57:29.923Z,42.60
2023-04-18T15:59:57.353Z,42.19
2023-04-18T16:02:43.028Z,42.58
2023-04-18T16:05:11.758Z,42.47
2023-04-18T16:07:42.462Z,42.46
2023-04-18T16:10:11.010Z,42.06
2023-04-18T16:12:39.201Z,42.18
2023-04-18T16:15:07.591Z,42.32
2023-04-18T16:17:34.837Z,42.34
2023-04-18T16:20:02.128Z,42.52
2023-04-18T16:22:30.102Z,42.90
2023-04-18T16:25:15.931Z,42.67
2023-04-18T16:27:44.516Z,42.98
2023-04-18T16:30:11.987Z,42.95
2023-04-18T16:32:39.737Z,42.92
2023-04-18T16:35:09.015Z,42.96
2023-04-18T16:37:41.698Z,43.28
2023-04-18T16:40:10.252Z,43.64
2023-04-18T16:42:37.357Z,43.52
2023-04-18T16:45:04.686Z,43.55
2023-04-18T16:47:33.466Z,43.79
2023-04-18T16:50:00.604Z,44.00
2023-04-18T16:52:27.567Z,44.31
2023-04-18T16:54:54.843Z,43.97
2023-04-18T16:57:21.671Z,44.17
2023-04-18T16:59:48.585Z,44.13
2023-04-18T17:02:15.702Z,44.30
2023-04-18T17:04:42.821Z,44.40
2023-04-18T17:07:09.776Z,44.29
2023-04-18T17:09:36.979Z,44.50
2023-04-18T17:12:03.889Z,44.44
2023-04-18T17:14:30.844Z,44.73
2023-04-18T17:16:57.696Z,44.64
2023-04-18T17:19:24.549Z,44.62
2023-04-18T17:21:51.724Z,44.37
2023-04-18T17:24:18.966Z,44.64
2023-04-18T17:26:46.350Z,44.34
2023-04-18T17:29:13.483Z,44.53
2023-04-18T17:31:40.587Z,44.75
2023-04-18T17:34:08.066Z,44.71
2023-04-18T17:36:35.081Z,44.53
2023-04-18T17:39:07.887Z,44.50
2023-04-18T17:41:53.328Z,44.67
2023-04-18T17:44:20.221Z,44.63
2023-04-18T17:46:48.848Z,44.72
2023-04-18T17:49:17.039Z,44.38
2023-04-18T17:51:43.907Z,44.72
2023-04-18T17:54:29.570Z,44.90
2023-04-18T17:56:57.899Z,44.83
2023-04-18T17:59:43.610Z,44.94
2023-04-18T18:02:11.940Z,45.08
2023-04-18T18:04:39.238Z,45.35
2023-04-18T18:07:06.365Z,45.61
2023-04-18T18:09:33.286Z,45.19
2023-04-18T18:12:00.331Z,45.25
2023-04-18T18:14:27.339Z,45.08
2023-04-18T18:16:54.370Z,45.27
2023-04-18T18:19:21.561Z,45.45
2023-04-18T18:21:48.411Z,45.68
2023-04-18T18:24:15.533Z,45.37
2023-04-18T18:26:42.409Z,45.66
2023-04-18T18:29:09.516Z,45.42
2023-04-18T18:31:36.623Z,45.53
2023-04-18T18:34:03.603Z,45.53
2023-04-18T18:36:31.556Z,45.87
2023-04-18T18:38:58.513Z,44.89
2023-04-18T18:41:43.878Z,45.30
2023-04-18T18:44:11.898Z,44.96
2023-04-18T18:46:38.858Z,44.17
2023-04-18T18:49:05.769Z,43.47
2023-04-18T18:51:33.006Z,43.94
2023-04-18T18:53:59.900Z,43.14
2023-04-18T18:56:27.131Z,43.14
2023-04-18T18:58:55.791Z,42.76
2023-04-18T19:01:23.152Z,42.91
2023-04-18T19:03:50.350Z,42.90
2023-04-18T19:06:17.499Z,42.85
2023-04-18T19:08:44.501Z,43.14
2023-04-18T19:11:13.102Z,43.14
2023-04-18T19:13:40.003Z,43.21
2023-04-18T19:16:07.051Z,43.53
2023-04-18T19:18:34.191Z,43.45
2023-04-18T19:21:01.131Z,43.59
2023-04-18T19:23:28.122Z,43.53
2023-04-18T19:25:55.149Z,43.66
2023-04-18T19:28:23.014Z,43.56
2023-04-18T19:30:50.127Z,43.48
2023-04-18T19:33:35.808Z,43.48
2023-04-18T19:36:02.770Z,43.35
2023-04-18T19:38:29.622Z,43.72
2023-04-18T19:40:56.540Z,43.89
2023-04-18T19:43:23.472Z,43.94
2023-04-18T19:45:50.728Z,43.55
2023-04-18T19:48:36.372Z,43.30
2023-04-18T19:51:21.824Z,43.29
2023-04-18T19:53:48.804Z,43.49
2023-04-18T19:56:15.908Z,43.33
2023-04-18T19:58:46.479Z,43.35
2023-04-18T20:01:14.113Z,43.27
2023-04-18T20:03:41.690Z,42.93
2023-04-18T20:06:08.798Z,43.03
2023-04-18T20:08:36.857Z,43.03
2023-04-18T20:11:10.597Z,42.79
2023-04-18T20:14:04.119Z,42.66
2023-04-18T20:16:31.857Z,42.54
2023-04-18T20:18:58.989Z,42.77
2023-04-18T20:21:26.769Z,43.01
2023-04-18T20:24:12.481Z,43.18
2023-04-18T20:26:39.377Z,43.56
2023-04-18T20:29:25.046Z,43.96
2023-04-18T20:31:52.158Z,43.74
2023-04-18T20:34:37.850Z,44.13
2023-04-18T20:37:23.313Z,44.17
2023-04-18T20:39:50.278Z,44.50
2023-04-18T20:42:17.605Z,44.37
2023-04-18T20:44:47.014Z,44.25
2023-04-18T20:47:51.109Z,44.22
2023-04-18T20:50:18.478Z,44.32
2023-04-18T20:52:45.489Z,44.45
2023-04-18T20:55:12.471Z,44.52
2023-04-18T20:57:39.406Z,44.11
2023-04-18T21:00:07.385Z,44.18
2023-04-18T21:02:34.802Z,44.71
2023-04-18T21:05:01.898Z,44.77
2023-04-18T21:07:31.232Z,44.63
2023-04-18T21:09:58.268Z,44.06
2023-04-18T21:12:25.240Z,44.23
2023-04-18T21:14:52.264Z,44.01
2023-04-18T21:17:20.772Z,44.04
2023-04-18T21:19:48.150Z,44.21
2023-04-18T21:22:15.812Z,44.42
2023-04-18T21:24:42.829Z,44.29
2023-04-18T21:27:12.484Z,44.35
2023-04-18T21:29:41.218Z,44.56
2023-04-18T21:32:08.071Z,44.04
2023-04-18T21:34:53.653Z,44.62
2023-04-18T21:37:20.682Z,44.44
2023-04-18T21:40:24.981Z,44.80
2023-04-18T21:42:51.869Z,44.07
2023-04-18T21:45:37.858Z,44.21
2023-04-18T21:48:23.578Z,44.58
2023-04-18T21:50:56.392Z,43.84
2023-04-18T21:53:23.311Z,44.34
2023-04-18T21:55:50.234Z,43.54
2023-04-18T21:58:17.179Z,43.24
2023-04-18T22:01:02.725Z,43.87
2023-04-18T22:03:48.571Z,43.78
2023-04-18T22:06:15.912Z,44.16
2023-04-18T22:08:43.284Z,43.40
2023-04-18T22:11:29.046Z,43.81
2023-04-18T22:14:14.533Z,43.63
2023-04-18T22:17:00.290Z,43.13
2023-04-18T22:19:45.712Z,44.31
2023-04-18T22:22:12.763Z,44.27
2023-04-18T22:24:39.750Z,43.46
2023-04-18T22:27:06.582Z,43.48
2023-04-18T22:29:51.812Z,43.38
2023-04-18T22:32:18.738Z,42.60
2023-04-18T22:34:45.866Z,42.60
2023-04-18T22:37:12.653Z,43.35
2023-04-18T22:39:39.423Z,43.86
2023-04-18T22:42:06.283Z,43.75
2023-04-18T22:44:33.157Z,42.96
2023-04-18T22:47:00.121Z,43.13
2023-04-18T22:49:27.734Z,43.63
2023-04-18T22:51:54.653Z,43.21
2023-04-18T22:54:21.486Z,43.27
2023-04-18T22:56:50.529Z,43.42
2023-04-18T22:59:17.403Z,43.65
2023-04-18T23:01:44.435Z,42.82
2023-04-18T23:04:11.453Z,42.89
2023-04-18T23:06:38.915Z,43.20
2023-04-18T23:09:06.853Z,43.01
2023-04-18T23:11:33.630Z,43.33
2023-04-18T23:14:00.723Z,43.24
2023-04-18T23:16:28.264Z,43.20
2023-04-18T23:18:55.109Z,43.06
2023-04-18T23:21:22.066Z,43.27
2023-04-18T23:23:48.885Z,43.24
2023-04-18T23:26:15.898Z,43.45
2023-04-18T23:28:42.778Z,42.98
2023-04-18T23:31:09.640Z,42.44
2023-04-18T23:33:36.885Z,43.71
2023-04-18T23:36:03.865Z,43.46
2023-04-18T23:38:30.699Z,43.28
2023-04-18T23:40:59.553Z,43.66
2023-04-18T23:43:26.361Z,43.48
2023-04-18T23:45:53.318Z,42.95
2023-04-18T23:48:20.307Z,43.06
2023-04-18T23:50:47.876Z,43.37
2023-04-18T23:53:16.603Z,43.64
2023-04-18T23:55:43.707Z,43.83
2023-04-18T23:58:10.550Z,43.31
